Friday, May 06, 2016
05:30 UTC
  |  Log In   |  Register Free
Airport Search:

Caruthersville Memorial Airport
(M05)

Caruthersville Memorial Airport Diagram
No Airport Diagram Available

FAA data valid effective Mar 31 2016 - May 26 2016 (unless otherwise noted).

 
 
 
 
 
 
 
 
 
 
 
 
 
 
Current Aviation Weather for M05

Weather Summary


Current weather conditions are not available for M05 - The nearest NOAA weather station is at HKA, (15.6 nm SW from M05)

The most recent METAR observation for M05 was updated at: 21:55 UTC
METAR for M05 is not available. Closest METAR is for KHKA 15.6 nm NE
KHKA  (15.6 nm NE)   (most recent observation was updated at 60:45 UTC)
060453Z AUTO 00000KT 10SM CLR 12/08 A3004 RMK AO2 SLPNO T01170078

KDYR  (16.6 nm NW)   (most recent observation was updated at 60:51 UTC)
060515Z AUTO 00000KT 10SM CLR 09/07 A3003 RMK AO1

TAF for M05 is not available.
GlobalAir.com is loading additional information.
 Current Weather at HKA
54.0 F° (12.2 C°)

Northeast winds at 5.8 mph
Pressure:
30.04 in
Humidity:
75%
Wind:
Northeast at 5.8 mph
Dew Point:
46.0 F° (7.8 C°)
Visibility:
10.00 mi
M05 NOAA Radar




Find All Airport Services Find A Hotel Find A Rental Car Find A Golf Course Find A Restaurant $100 Hamburger



Airport Weather Forecast for M05

Translated METAR for KHKA (0453 UTC)
METAR:
KHKA 060453Z AUTO 00000KT 10SM CLR 12/08 A3004 RMK AO2 SLPNO T01170078
Conditions at:
KHKA (Blytheville Muni, AR) observed 0453 UTC 06 May 2016
Temperature:
12°C (53.6°F)
Dewpoint:
8°C (46.4°F) [RH = 76.5]
Pressure:
30.04 inches Hg (1017.3 mb)
Winds:
from the N (000 degrees) at 0 mph (0 knots: 0 m/s)
Visibility:
10 mile(s)
Ceiling:
at least 12,000 feet AGL
Clouds:
Clear below 12,000 feet AGL
Remarks:
site is un-manned
site is automated and HAS a precipitation sensor

Translated TAF for TAF for M05 is not available. Refer to local area forecast.
FBO's on the Field
FBO Company Facility Photos Services Transportation Aviation Fuel Prices: Prices include tax
Catering Weather Repair Courtesy Rental Type 100LL JetA JetA+ MOGAS 8087
 
Add another FBO Facility Photos Catering Weather Repair Courtesy Rental Type 100LL JetA JetA+ MOGAS 8087
Services Transportation Aviation Fuel Prices: Prices include tax
There are no FBO's currently reporting fuel at M05. List your FBO now


model-print
model-print
model-print
model-print